createdAt,value
2022-11-07T00:00:49.913Z,25.09
2022-11-07T00:01:52.048Z,25.11
2022-11-07T00:02:53.747Z,25.09
2022-11-07T00:03:56.041Z,25.10
2022-11-07T00:04:57.608Z,25.12
2022-11-07T00:05:59.108Z,25.11
2022-11-07T00:07:01.059Z,25.11
2022-11-07T00:08:02.623Z,25.11
2022-11-07T00:09:04.793Z,25.12
2022-11-07T00:10:06.683Z,25.12
2022-11-07T00:11:08.399Z,25.12
2022-11-07T00:12:10.043Z,25.15
2022-11-07T00:13:11.748Z,25.12
2022-11-07T00:14:15.128Z,25.11
2022-11-07T00:15:16.756Z,25.11
2022-11-07T00:16:18.289Z,25.12
2022-11-07T00:17:19.852Z,25.13
2022-11-07T00:18:21.372Z,25.12
2022-11-07T00:19:22.883Z,25.11
2022-11-07T00:20:24.725Z,25.11
2022-11-07T00:21:26.248Z,25.12
2022-11-07T00:22:27.902Z,25.12
2022-11-07T00:23:29.745Z,25.12
2022-11-07T00:24:31.321Z,25.13
2022-11-07T00:25:32.843Z,25.12
2022-11-07T00:26:34.452Z,25.11
2022-11-07T00:27:36.549Z,25.10
2022-11-07T00:28:40.313Z,25.11
2022-11-07T00:29:41.874Z,25.12
2022-11-07T00:30:43.768Z,25.13
2022-11-07T00:31:46.281Z,25.13
2022-11-07T00:32:47.781Z,25.14
2022-11-07T00:33:49.773Z,25.16
2022-11-07T00:34:51.289Z,25.18
2022-11-07T00:35:52.869Z,25.16
2022-11-07T00:36:54.420Z,25.17
2022-11-07T00:37:56.471Z,25.16
2022-11-07T00:38:58.022Z,25.16
2022-11-07T00:39:59.566Z,25.16
2022-11-07T00:41:04.501Z,25.15
2022-11-07T00:42:06.077Z,25.17
2022-11-07T00:43:07.607Z,25.19
2022-11-07T00:44:09.163Z,25.19
2022-11-07T00:45:11.827Z,25.19
2022-11-07T00:46:15.777Z,25.19
2022-11-07T00:47:17.299Z,25.22
2022-11-07T00:48:19.078Z,25.21
2022-11-07T00:49:20.626Z,25.22
2022-11-07T00:50:22.152Z,25.22
2022-11-07T00:51:25.832Z,25.21
2022-11-07T00:52:27.354Z,25.23
2022-11-07T00:53:28.845Z,25.21
2022-11-07T00:54:30.389Z,25.22
2022-11-07T00:55:32.844Z,25.20
2022-11-07T00:56:34.535Z,25.22
2022-11-07T00:57:36.052Z,25.21
2022-11-07T00:58:37.744Z,25.19
2022-11-07T00:59:39.270Z,25.19
2022-11-07T01:00:40.975Z,25.18
2022-11-07T01:01:42.646Z,25.18
2022-11-07T01:02:44.404Z,25.17
2022-11-07T01:04:05.563Z,25.19
2022-11-07T01:05:11.664Z,25.17
2022-11-07T01:06:13.177Z,25.16
2022-11-07T01:07:14.738Z,25.16
2022-11-07T01:08:16.260Z,25.15
2022-11-07T01:09:20.700Z,25.12
2022-11-07T01:10:22.244Z,25.12
2022-11-07T01:11:25.833Z,25.11
2022-11-07T01:12:27.398Z,25.10
2022-11-07T01:13:28.919Z,25.09
2022-11-07T01:14:30.870Z,25.10
2022-11-07T01:15:32.378Z,25.08
2022-11-07T01:16:35.519Z,25.06
2022-11-07T01:17:37.090Z,25.06
2022-11-07T01:18:39.378Z,25.06
2022-11-07T01:19:40.978Z,25.06
2022-11-07T01:20:42.801Z,25.05
2022-11-07T01:21:44.497Z,25.05
2022-11-07T01:22:47.016Z,25.03
2022-11-07T01:23:49.216Z,25.03
2022-11-07T01:24:50.800Z,25.02
2022-11-07T01:25:52.338Z,25.02
2022-11-07T01:26:53.909Z,25.02
2022-11-07T01:27:55.469Z,25.00
2022-11-07T01:28:57.183Z,25.00
2022-11-07T01:29:58.718Z,25.02
2022-11-07T01:31:03.605Z,24.99
2022-11-07T01:32:05.504Z,25.00
2022-11-07T01:33:07.586Z,24.99
2022-11-07T01:34:09.181Z,24.99
2022-11-07T01:35:10.782Z,24.99
2022-11-07T01:36:15.879Z,24.96
2022-11-07T01:37:17.453Z,24.98
2022-11-07T01:38:18.957Z,24.97
2022-11-07T01:39:20.489Z,24.94
2022-11-07T01:40:22.023Z,24.94
2022-11-07T01:41:27.373Z,24.93
2022-11-07T01:42:28.920Z,24.93
2022-11-07T01:43:46.289Z,24.91
2022-11-07T01:44:56.414Z,24.92
2022-11-07T01:45:57.966Z,24.93
2022-11-07T01:47:01.047Z,24.93
2022-11-07T01:48:03.605Z,24.92
2022-11-07T01:49:28.351Z,24.89
2022-11-07T01:50:30.710Z,24.93
2022-11-07T01:51:37.701Z,24.93
2022-11-07T01:52:43.376Z,24.89
2022-11-07T01:53:45.478Z,24.92
2022-11-07T01:54:50.366Z,24.88
2022-11-07T01:55:52.148Z,24.91
2022-11-07T01:56:56.740Z,24.90
2022-11-07T01:58:05.688Z,24.88
2022-11-07T01:59:10.565Z,24.89
2022-11-07T02:00:15.731Z,24.88
2022-11-07T02:01:17.839Z,24.90
2022-11-07T02:02:19.648Z,24.88
2022-11-07T02:03:21.532Z,24.87
2022-11-07T02:04:27.500Z,24.85
2022-11-07T02:05:34.285Z,24.85
2022-11-07T02:07:11.188Z,24.88
2022-11-07T02:08:14.966Z,24.88
2022-11-07T02:09:16.518Z,24.87
2022-11-07T02:10:18.519Z,24.86
2022-11-07T02:11:21.344Z,24.84
2022-11-07T02:12:24.877Z,24.83
2022-11-07T02:13:28.229Z,24.83
2022-11-07T02:14:30.372Z,24.85
2022-11-07T02:15:34.743Z,24.85
2022-11-07T02:16:36.522Z,24.86
2022-11-07T02:17:38.438Z,24.84
2022-11-07T02:18:42.853Z,24.84
2022-11-07T02:19:52.924Z,24.80
2022-11-07T02:21:00.264Z,24.84
2022-11-07T02:22:43.720Z,24.81
2022-11-07T02:23:54.667Z,24.84
2022-11-07T02:24:59.825Z,24.83
2022-11-07T02:26:01.393Z,24.81
2022-11-07T02:27:09.073Z,24.79
2022-11-07T02:28:13.856Z,24.80
2022-11-07T02:29:15.888Z,24.80
2022-11-07T02:30:23.518Z,24.79
2022-11-07T02:31:25.154Z,24.82
2022-11-07T02:32:26.689Z,24.80
2022-11-07T02:33:28.205Z,24.79
2022-11-07T02:34:29.945Z,24.79
2022-11-07T02:35:41.237Z,24.74
2022-11-07T02:36:42.740Z,24.78
2022-11-07T02:37:44.506Z,24.77
2022-11-07T02:38:48.993Z,24.77
2022-11-07T02:39:51.405Z,24.77
2022-11-07T02:41:06.879Z,24.74
2022-11-07T02:42:09.055Z,24.79
2022-11-07T02:43:13.483Z,24.77
2022-11-07T02:44:15.215Z,24.77
2022-11-07T02:45:18.576Z,24.74
2022-11-07T02:46:22.141Z,24.76
2022-11-07T02:47:23.684Z,24.75
2022-11-07T02:48:30.196Z,24.73
2022-11-07T02:49:31.729Z,24.74
2022-11-07T02:50:33.668Z,24.73
2022-11-07T02:51:35.292Z,24.73
2022-11-07T02:52:37.160Z,24.73
2022-11-07T02:53:39.105Z,24.75
2022-11-07T02:54:40.645Z,24.75
2022-11-07T02:55:42.219Z,24.73
2022-11-07T02:56:43.805Z,24.74
2022-11-07T02:57:45.371Z,24.74
2022-11-07T02:58:47.115Z,24.74
2022-11-07T02:59:48.828Z,24.74
2022-11-07T03:00:50.357Z,24.74
2022-11-07T03:01:52.210Z,24.72
2022-11-07T03:02:53.991Z,24.74
2022-11-07T03:03:55.695Z,24.76
2022-11-07T03:04:57.345Z,24.75
2022-11-07T03:05:58.844Z,24.76
2022-11-07T03:07:00.411Z,24.75
2022-11-07T03:08:01.929Z,24.77
2022-11-07T03:09:03.820Z,24.76
2022-11-07T03:10:05.869Z,24.76
2022-11-07T03:11:07.907Z,24.75
2022-11-07T03:12:09.676Z,24.75
2022-11-07T03:13:11.290Z,24.76
2022-11-07T03:14:12.978Z,24.75
2022-11-07T03:15:15.021Z,24.73
2022-11-07T03:16:18.390Z,24.73
2022-11-07T03:17:19.920Z,24.74
2022-11-07T03:18:21.917Z,24.74
2022-11-07T03:19:23.454Z,24.74
2022-11-07T03:20:24.981Z,24.75
2022-11-07T03:21:26.497Z,24.75
2022-11-07T03:22:28.077Z,24.75
2022-11-07T03:23:29.797Z,24.73
2022-11-07T03:24:32.502Z,24.72
2022-11-07T03:25:34.057Z,24.73
2022-11-07T03:26:35.578Z,24.73
2022-11-07T03:27:45.102Z,24.73
2022-11-07T03:28:46.633Z,24.74
2022-11-07T03:29:48.166Z,24.74
2022-11-07T03:30:49.725Z,24.73
2022-11-07T03:31:51.257Z,24.73
2022-11-07T03:32:53.228Z,24.72
2022-11-07T03:33:54.736Z,24.71
2022-11-07T03:34:56.238Z,24.73
2022-11-07T03:35:58.003Z,24.72
2022-11-07T03:36:59.551Z,24.74
2022-11-07T03:38:01.160Z,24.73
2022-11-07T03:39:03.373Z,24.73
2022-11-07T03:40:05.446Z,24.73
2022-11-07T03:41:07.080Z,24.71
2022-11-07T03:42:08.613Z,24.70
2022-11-07T03:43:10.162Z,24.69
2022-11-07T03:44:11.665Z,24.69
2022-11-07T03:45:15.369Z,24.69
2022-11-07T03:46:16.948Z,24.69
2022-11-07T03:47:18.684Z,24.71
2022-11-07T03:48:20.222Z,24.70
2022-11-07T03:49:21.744Z,24.68
2022-11-07T03:50:23.288Z,24.69
2022-11-07T03:51:24.888Z,24.68
2022-11-07T03:52:26.433Z,24.69
2022-11-07T03:53:28.304Z,24.69
2022-11-07T03:54:30.164Z,24.69
2022-11-07T03:55:31.670Z,24.70
2022-11-07T03:56:33.224Z,24.70
2022-11-07T03:57:34.862Z,24.70
2022-11-07T03:58:37.302Z,24.69
2022-11-07T03:59:38.856Z,24.69
2022-11-07T04:00:40.520Z,24.68
2022-11-07T04:01:42.175Z,24.71
2022-11-07T04:02:44.440Z,24.69
2022-11-07T04:03:46.027Z,24.72
2022-11-07T04:04:47.521Z,24.72
2022-11-07T04:05:49.060Z,24.70
2022-11-07T04:06:50.627Z,24.70
2022-11-07T04:07:52.220Z,24.69
2022-11-07T04:08:53.790Z,24.70
2022-11-07T04:09:55.353Z,24.68
2022-11-07T04:10:56.862Z,24.68
2022-11-07T04:12:17.036Z,24.67
2022-11-07T04:13:36.929Z,24.67
2022-11-07T04:14:58.682Z,24.67
2022-11-07T04:16:19.172Z,24.67
2022-11-07T04:17:20.941Z,24.64
2022-11-07T04:18:22.553Z,24.62
2022-11-07T04:19:26.497Z,24.61
2022-11-07T04:20:28.952Z,24.61
2022-11-07T04:21:30.522Z,24.62
2022-11-07T04:22:32.425Z,24.62
2022-11-07T04:23:34.016Z,24.62
2022-11-07T04:24:35.564Z,24.61
2022-11-07T04:25:55.600Z,24.60
2022-11-07T04:27:15.318Z,24.60
2022-11-07T04:28:17.972Z,24.58
2022-11-07T04:29:19.570Z,24.60
2022-11-07T04:30:26.230Z,24.59
2022-11-07T04:31:27.782Z,24.58
2022-11-07T04:32:29.412Z,24.58
2022-11-07T04:33:31.026Z,24.57
2022-11-07T04:34:32.643Z,24.59
2022-11-07T04:35:34.183Z,24.57
2022-11-07T04:36:36.270Z,24.58
2022-11-07T04:37:37.826Z,24.59
2022-11-07T04:38:39.364Z,24.58
2022-11-07T04:39:40.876Z,24.56
2022-11-07T04:40:42.437Z,24.56
2022-11-07T04:41:43.941Z,24.57
2022-11-07T04:42:46.475Z,24.57
2022-11-07T04:43:48.519Z,24.57
2022-11-07T04:44:50.030Z,24.56
2022-11-07T04:45:51.782Z,24.57
2022-11-07T04:46:53.324Z,24.57
2022-11-07T04:47:54.926Z,24.58
2022-11-07T04:48:56.445Z,24.58
2022-11-07T04:49:58.154Z,24.59
2022-11-07T04:50:59.865Z,24.57
2022-11-07T04:52:01.405Z,24.58
2022-11-07T04:53:02.952Z,24.59
2022-11-07T04:54:04.525Z,24.57
2022-11-07T04:55:07.790Z,24.57
2022-11-07T04:56:09.442Z,24.56
2022-11-07T04:57:10.943Z,24.56
2022-11-07T04:58:12.496Z,24.58
2022-11-07T04:59:14.003Z,24.59
2022-11-07T05:00:17.002Z,24.58
2022-11-07T05:01:18.517Z,24.57
2022-11-07T05:02:24.065Z,24.54
2022-11-07T05:03:25.796Z,24.58
2022-11-07T05:04:27.438Z,24.57
2022-11-07T05:05:28.958Z,24.55
2022-11-07T05:06:35.224Z,24.55
2022-11-07T05:07:36.892Z,24.58
2022-11-07T05:08:38.399Z,24.56
2022-11-07T05:09:39.933Z,24.55
2022-11-07T05:10:41.995Z,24.56
2022-11-07T05:11:47.154Z,24.54
2022-11-07T05:12:48.899Z,24.56
2022-11-07T05:13:50.446Z,24.57
2022-11-07T05:14:51.979Z,24.55
2022-11-07T05:15:53.729Z,24.55
2022-11-07T05:16:55.316Z,24.54
2022-11-07T05:17:56.792Z,24.53
2022-11-07T05:18:58.306Z,24.54
2022-11-07T05:19:59.848Z,24.56
2022-11-07T05:21:01.378Z,24.55
2022-11-07T05:22:21.210Z,24.56
2022-11-07T05:23:22.765Z,24.55
2022-11-07T05:24:24.276Z,24.54
2022-11-07T05:25:25.805Z,24.55
2022-11-07T05:26:27.374Z,24.55
2022-11-07T05:27:28.884Z,24.55
2022-11-07T05:28:38.866Z,24.54
2022-11-07T05:29:40.949Z,24.53
2022-11-07T05:30:43.935Z,24.53
2022-11-07T05:31:45.474Z,24.54
2022-11-07T05:32:46.979Z,24.54
2022-11-07T05:33:48.486Z,24.55
2022-11-07T05:34:50.135Z,24.53
2022-11-07T05:35:51.673Z,24.53
2022-11-07T05:36:53.240Z,24.53
2022-11-07T05:37:54.793Z,24.54
2022-11-07T05:38:56.295Z,24.54
2022-11-07T05:39:57.817Z,24.55
2022-11-07T05:41:03.406Z,24.52
2022-11-07T05:42:05.398Z,24.54
2022-11-07T05:43:09.444Z,24.55
2022-11-07T05:44:10.979Z,24.55
2022-11-07T05:45:12.474Z,24.56
2022-11-07T05:46:14.376Z,24.55
2022-11-07T05:47:15.952Z,24.54
2022-11-07T05:48:17.506Z,24.53
2022-11-07T05:49:19.212Z,24.53
2022-11-07T05:50:20.733Z,24.54
2022-11-07T05:51:22.244Z,24.52
2022-11-07T05:52:23.809Z,24.53
2022-11-07T05:53:26.161Z,24.53
2022-11-07T05:54:28.159Z,24.54
2022-11-07T05:55:30.458Z,24.54
2022-11-07T05:56:31.988Z,24.55
2022-11-07T05:57:33.514Z,24.55
2022-11-07T05:58:35.367Z,24.53
2022-11-07T05:59:36.958Z,24.55
2022-11-07T06:00:39.463Z,24.54
2022-11-07T06:01:41.302Z,24.56
2022-11-07T06:02:43.114Z,24.55
2022-11-07T06:03:44.718Z,24.57
2022-11-07T06:04:46.228Z,24.57
2022-11-07T06:05:47.811Z,24.59
2022-11-07T06:06:49.375Z,24.60
2022-11-07T06:07:50.888Z,24.60
2022-11-07T06:08:52.393Z,24.62
2022-11-07T06:09:53.976Z,24.63
2022-11-07T06:10:55.598Z,24.64
2022-11-07T06:11:57.101Z,24.62
2022-11-07T06:13:03.925Z,24.59
2022-11-07T06:14:05.826Z,24.63
2022-11-07T06:15:07.875Z,24.62
2022-11-07T06:16:09.398Z,24.64
2022-11-07T06:17:10.948Z,24.64
2022-11-07T06:18:18.736Z,24.63
2022-11-07T06:19:20.370Z,24.67
2022-11-07T06:20:22.032Z,24.67
2022-11-07T06:21:23.621Z,24.68
2022-11-07T06:22:25.828Z,24.66
2022-11-07T06:23:27.440Z,24.68
2022-11-07T06:24:28.967Z,24.69
2022-11-07T06:25:30.703Z,24.67
2022-11-07T06:26:32.202Z,24.66
2022-11-07T06:27:33.872Z,24.67
2022-11-07T06:28:36.111Z,24.70
2022-11-07T06:29:37.621Z,24.73
2022-11-07T06:30:39.626Z,24.74
2022-11-07T06:31:41.165Z,24.75
2022-11-07T06:32:44.370Z,24.77
2022-11-07T06:33:46.080Z,24.78
2022-11-07T06:34:48.189Z,24.79
2022-11-07T06:35:49.721Z,24.80
2022-11-07T06:37:02.569Z,24.78
2022-11-07T06:38:07.450Z,24.81
2022-11-07T06:39:09.149Z,24.82
2022-11-07T06:40:11.625Z,24.83
2022-11-07T06:41:14.566Z,24.85
2022-11-07T06:42:16.092Z,24.86
2022-11-07T06:43:20.345Z,24.85
2022-11-07T06:44:22.399Z,24.85
2022-11-07T06:45:24.239Z,24.85
2022-11-07T06:46:26.071Z,24.87
2022-11-07T06:47:28.670Z,24.85
2022-11-07T06:48:30.540Z,24.86
2022-11-07T06:49:32.149Z,24.86
2022-11-07T06:50:34.207Z,24.85
2022-11-07T06:51:36.964Z,24.84
2022-11-07T06:52:38.522Z,24.86
2022-11-07T06:53:40.053Z,24.84
2022-11-07T06:54:41.583Z,24.85
2022-11-07T06:55:43.202Z,24.85
2022-11-07T06:56:44.720Z,24.85
2022-11-07T06:57:46.256Z,24.87
2022-11-07T06:58:47.887Z,24.85
2022-11-07T06:59:51.948Z,24.85
2022-11-07T07:00:54.013Z,24.85
2022-11-07T07:01:55.640Z,24.85
2022-11-07T07:02:59.048Z,24.84
2022-11-07T07:04:01.028Z,24.85
2022-11-07T07:05:02.560Z,24.86
2022-11-07T07:06:06.191Z,24.84
2022-11-07T07:07:07.741Z,24.84
2022-11-07T07:08:11.254Z,24.85
2022-11-07T07:09:12.919Z,24.84
2022-11-07T07:10:14.800Z,24.84
2022-11-07T07:11:17.053Z,24.85
2022-11-07T07:12:18.585Z,24.86
2022-11-07T07:13:20.177Z,24.83
2022-11-07T07:14:21.705Z,24.85
2022-11-07T07:15:23.529Z,24.84
2022-11-07T07:16:25.055Z,24.84
2022-11-07T07:17:26.593Z,24.83
2022-11-07T07:18:28.246Z,24.81
2022-11-07T07:19:29.757Z,24.80
2022-11-07T07:20:31.561Z,24.80
2022-11-07T07:21:33.426Z,24.78
2022-11-07T07:22:34.970Z,24.79
2022-11-07T07:23:38.582Z,24.81
2022-11-07T07:24:40.118Z,24.80
2022-11-07T07:25:41.626Z,24.78
2022-11-07T07:26:43.140Z,24.77
2022-11-07T07:27:44.685Z,24.79
2022-11-07T07:28:46.222Z,24.80
2022-11-07T07:29:47.865Z,24.79
2022-11-07T07:30:52.058Z,24.79
2022-11-07T07:31:53.837Z,24.79
2022-11-07T07:32:55.345Z,24.80
2022-11-07T07:33:57.212Z,24.80
2022-11-07T07:34:58.784Z,24.78
2022-11-07T07:36:00.391Z,24.78
2022-11-07T07:37:01.947Z,24.79
2022-11-07T07:38:03.619Z,24.79
2022-11-07T07:39:05.203Z,24.79
2022-11-07T07:40:07.466Z,24.78
2022-11-07T07:41:09.001Z,24.78
2022-11-07T07:42:10.534Z,24.78
2022-11-07T07:43:12.313Z,24.79
2022-11-07T07:44:14.037Z,24.80
2022-11-07T07:45:16.751Z,24.80
2022-11-07T07:46:23.112Z,24.80
2022-11-07T07:47:24.674Z,24.83
2022-11-07T07:48:26.481Z,24.83
2022-11-07T07:49:28.200Z,24.83
2022-11-07T07:50:29.802Z,24.82
2022-11-07T07:51:31.327Z,24.82
2022-11-07T07:52:32.873Z,24.82
2022-11-07T07:53:34.464Z,24.82
2022-11-07T07:54:37.585Z,24.82
2022-11-07T07:55:39.098Z,24.84
2022-11-07T07:56:40.651Z,24.83
2022-11-07T07:57:42.895Z,24.83
2022-11-07T07:58:44.642Z,24.82
2022-11-07T07:59:46.155Z,24.84
2022-11-07T08:00:52.559Z,24.81
2022-11-07T08:01:57.184Z,24.86
2022-11-07T08:03:04.140Z,24.84
2022-11-07T08:04:05.656Z,24.85
2022-11-07T08:05:07.561Z,24.84
2022-11-07T08:06:10.573Z,24.84
2022-11-07T08:07:12.234Z,24.85
2022-11-07T08:08:13.752Z,24.86
2022-11-07T08:09:15.258Z,24.84
2022-11-07T08:11:39.822Z,24.86
2022-11-07T08:12:49.725Z,24.81
2022-11-07T08:13:51.218Z,24.84
2022-11-07T08:14:52.735Z,24.82
2022-11-07T08:15:54.289Z,24.82
2022-11-07T08:16:56.313Z,24.83
2022-11-07T08:18:02.106Z,24.82
2022-11-07T08:19:03.632Z,24.85
2022-11-07T08:20:05.743Z,24.84
2022-11-07T08:21:08.177Z,24.84
2022-11-07T08:22:10.508Z,24.84
2022-11-07T08:23:16.537Z,24.84
2022-11-07T08:24:18.929Z,24.84
2022-11-07T08:25:20.444Z,24.85
2022-11-07T08:26:22.007Z,24.82
2022-11-07T08:27:23.514Z,24.84
2022-11-07T08:28:27.774Z,24.81
2022-11-07T08:29:29.327Z,24.84
2022-11-07T08:30:31.818Z,24.83
2022-11-07T08:31:33.591Z,24.83
2022-11-07T08:32:35.111Z,24.80
2022-11-07T08:33:36.897Z,24.84
2022-11-07T08:34:38.867Z,24.84
2022-11-07T08:35:42.673Z,24.84
2022-11-07T08:36:44.504Z,24.85
2022-11-07T08:37:46.236Z,24.87
2022-11-07T08:38:47.757Z,24.87
2022-11-07T08:39:49.295Z,24.87
2022-11-07T08:40:51.659Z,24.89
2022-11-07T08:41:53.181Z,24.88
2022-11-07T08:43:00.400Z,24.88
2022-11-07T08:44:02.212Z,24.91
2022-11-07T08:45:04.330Z,24.92
2022-11-07T08:46:06.315Z,24.90
2022-11-07T08:47:08.740Z,24.87
2022-11-07T08:48:10.791Z,24.89
2022-11-07T08:49:12.389Z,24.86
2022-11-07T08:50:13.919Z,24.88
2022-11-07T08:51:18.594Z,24.87
2022-11-07T08:52:20.257Z,24.88
2022-11-07T08:53:22.514Z,24.89
2022-11-07T08:54:26.081Z,24.90
2022-11-07T08:55:27.620Z,24.90
2022-11-07T08:56:29.698Z,24.91
2022-11-07T08:57:31.296Z,24.90
2022-11-07T08:58:33.528Z,24.91
2022-11-07T08:59:35.080Z,24.90
2022-11-07T09:00:36.910Z,24.90
2022-11-07T09:01:55.910Z,24.90
2022-11-07T09:04:28.424Z,24.93
2022-11-07T09:05:30.227Z,24.93
2022-11-07T09:06:32.974Z,24.92
2022-11-07T09:07:37.454Z,24.89
2022-11-07T09:08:40.775Z,24.88
2022-11-07T09:09:42.281Z,24.89
2022-11-07T09:10:43.823Z,24.89
2022-11-07T09:11:45.367Z,24.92
2022-11-07T09:12:48.272Z,24.90
2022-11-07T09:13:49.864Z,24.90
2022-11-07T09:14:51.421Z,24.90
2022-11-07T09:15:57.286Z,24.88
2022-11-07T09:16:58.890Z,24.91
2022-11-07T09:18:05.441Z,24.87
2022-11-07T09:19:07.039Z,24.87
2022-11-07T09:20:10.308Z,24.88
2022-11-07T09:21:11.906Z,24.89
2022-11-07T09:22:13.857Z,24.91
2022-11-07T09:23:15.710Z,24.90
2022-11-07T09:24:17.544Z,24.92
2022-11-07T09:25:19.283Z,24.89
2022-11-07T09:26:20.857Z,24.91
2022-11-07T09:27:22.378Z,24.91
2022-11-07T09:28:23.914Z,24.91
2022-11-07T09:29:25.518Z,24.92
2022-11-07T09:30:27.040Z,24.92
2022-11-07T09:31:28.855Z,24.93
2022-11-07T09:32:44.302Z,24.93
2022-11-07T09:33:46.806Z,24.95
2022-11-07T09:34:54.391Z,24.93
2022-11-07T09:36:00.611Z,24.96
2022-11-07T09:37:03.285Z,24.96
2022-11-07T09:38:04.923Z,24.95
2022-11-07T09:39:07.150Z,24.94
2022-11-07T09:40:24.569Z,24.90
2022-11-07T09:41:39.680Z,24.91
2022-11-07T09:43:07.026Z,24.92
2022-11-07T09:44:46.253Z,24.92
2022-11-07T09:45:57.115Z,24.92
2022-11-07T09:47:17.032Z,24.93
2022-11-07T09:48:24.202Z,24.93
2022-11-07T09:49:45.993Z,24.88
2022-11-07T09:50:49.330Z,24.95
2022-11-07T09:51:59.345Z,24.92
2022-11-07T09:53:07.505Z,24.91
2022-11-07T09:54:20.536Z,24.92
2022-11-07T09:55:35.521Z,24.90
2022-11-07T09:56:37.110Z,24.93
2022-11-07T09:57:38.717Z,24.94
2022-11-07T09:58:54.525Z,24.91
2022-11-07T10:00:00.532Z,24.94
2022-11-07T10:01:12.694Z,24.93
2022-11-07T10:02:19.791Z,24.93
2022-11-07T10:03:21.624Z,24.95
2022-11-07T10:04:25.723Z,24.95
2022-11-07T10:05:50.201Z,24.92
2022-11-07T10:07:07.809Z,24.93
2022-11-07T10:08:16.565Z,24.97
2022-11-07T10:09:49.948Z,24.95
2022-11-07T10:10:58.220Z,24.98
2022-11-07T10:11:59.685Z,24.98
2022-11-07T10:13:10.543Z,24.95
2022-11-07T10:14:40.705Z,24.96
2022-11-07T10:15:57.178Z,24.96
2022-11-07T10:17:03.966Z,24.96
2022-11-07T10:18:23.380Z,24.93
2022-11-07T10:19:32.637Z,24.96
2022-11-07T10:20:47.648Z,24.93
2022-11-07T10:22:00.420Z,24.94
2022-11-07T10:23:33.148Z,24.94
2022-11-07T10:24:52.537Z,24.97
2022-11-07T10:25:59.516Z,24.98
2022-11-07T10:27:01.969Z,24.98
2022-11-07T10:28:18.313Z,24.95
2022-11-07T10:29:24.374Z,24.98
2022-11-07T10:30:25.952Z,24.97
2022-11-07T10:31:38.415Z,24.94
2022-11-07T10:33:21.253Z,24.93
2022-11-07T10:34:41.661Z,24.94
2022-11-07T10:35:47.612Z,24.96
2022-11-07T10:36:49.227Z,24.98
2022-11-07T10:37:55.418Z,24.94
2022-11-07T10:38:57.890Z,24.96
2022-11-07T10:39:59.467Z,24.95
2022-11-07T10:41:01.062Z,24.97
2022-11-07T10:42:10.913Z,24.94
2022-11-07T10:43:22.266Z,24.96
2022-11-07T10:44:27.681Z,24.99
2022-11-07T10:45:29.737Z,24.98
2022-11-07T10:46:39.828Z,24.96
2022-11-07T10:47:42.131Z,24.98
2022-11-07T10:48:58.437Z,24.96
2022-11-07T10:50:03.001Z,24.99
2022-11-07T10:51:04.581Z,24.98
2022-11-07T10:52:16.782Z,24.95
2022-11-07T10:53:23.135Z,24.96
2022-11-07T10:54:31.800Z,24.94
2022-11-07T10:55:43.963Z,24.94
2022-11-07T10:56:54.035Z,25.00
2022-11-07T10:58:06.008Z,24.98
2022-11-07T10:59:12.688Z,24.98
2022-11-07T11:00:41.988Z,24.94
2022-11-07T11:01:51.018Z,24.98
2022-11-07T11:02:54.374Z,25.01
2022-11-07T11:03:55.988Z,24.99
2022-11-07T11:05:02.614Z,24.97
2022-11-07T11:06:17.367Z,24.95
2022-11-07T11:07:21.857Z,24.95
2022-11-07T11:08:32.018Z,24.97
2022-11-07T11:09:35.998Z,24.96
2022-11-07T11:10:39.797Z,24.95
2022-11-07T11:11:41.402Z,24.94
2022-11-07T11:12:46.641Z,24.93
2022-11-07T11:13:49.250Z,24.94
2022-11-07T11:14:50.949Z,24.95
2022-11-07T11:15:52.568Z,24.94
2022-11-07T11:16:56.337Z,24.95
2022-11-07T11:18:03.906Z,24.93
2022-11-07T11:19:16.937Z,24.94
2022-11-07T11:20:40.628Z,24.89
2022-11-07T11:21:45.601Z,24.96
2022-11-07T11:22:47.185Z,24.96
2022-11-07T11:23:49.433Z,24.95
2022-11-07T11:25:23.971Z,24.92
2022-11-07T11:26:31.907Z,24.96
2022-11-07T11:27:35.802Z,24.97
2022-11-07T11:28:43.380Z,24.97
2022-11-07T11:29:54.002Z,24.94
2022-11-07T11:31:06.485Z,24.94
2022-11-07T11:32:22.580Z,24.93
2022-11-07T11:33:32.032Z,24.93
2022-11-07T11:34:48.664Z,24.92
2022-11-07T11:35:57.081Z,24.95
2022-11-07T11:37:11.647Z,24.92
2022-11-07T11:38:18.418Z,24.94
2022-11-07T11:39:51.941Z,24.91
2022-11-07T11:41:06.133Z,24.96
2022-11-07T11:42:36.793Z,24.95
2022-11-07T11:44:00.586Z,24.94
2022-11-07T11:45:40.546Z,24.89
2022-11-07T11:47:07.966Z,24.91
2022-11-07T11:48:26.571Z,24.93
2022-11-07T11:49:44.010Z,24.98
2022-11-07T11:50:51.746Z,24.93
2022-11-07T11:52:03.276Z,24.93
2022-11-07T11:53:04.865Z,24.97
2022-11-07T11:54:11.517Z,24.93
2022-11-07T11:55:15.901Z,24.95
2022-11-07T11:56:32.798Z,24.93
2022-11-07T11:57:58.660Z,24.91
2022-11-07T11:59:31.064Z,24.93
2022-11-07T12:00:39.845Z,24.95
2022-11-07T12:02:04.515Z,24.94
2022-11-07T12:03:30.568Z,24.94
2022-11-07T12:04:47.234Z,24.99
2022-11-07T12:06:14.439Z,24.94
2022-11-07T12:07:30.479Z,24.97
2022-11-07T12:08:51.885Z,24.97
2022-11-07T12:10:08.383Z,25.00
2022-11-07T12:11:16.765Z,25.00
2022-11-07T12:12:22.237Z,24.97
2022-11-07T12:13:34.669Z,25.00
2022-11-07T12:14:46.262Z,24.95
2022-11-07T12:16:05.927Z,24.98
2022-11-07T12:17:25.616Z,24.95
2022-11-07T12:18:47.350Z,25.00
2022-11-07T12:19:54.578Z,24.99
2022-11-07T12:21:08.245Z,24.99
2022-11-07T12:22:29.985Z,24.99
2022-11-07T12:23:46.080Z,24.97
2022-11-07T12:25:19.909Z,24.96
2022-11-07T12:26:28.459Z,25.00
2022-11-07T12:28:07.298Z,24.97
2022-11-07T12:29:08.888Z,25.02
2022-11-07T12:30:22.840Z,24.96
2022-11-07T12:31:50.212Z,24.96
2022-11-07T12:32:57.531Z,24.99
2022-11-07T12:34:27.551Z,24.97
2022-11-07T12:35:40.836Z,24.97
2022-11-07T12:37:01.492Z,24.95
2022-11-07T12:38:40.136Z,24.95
2022-11-07T12:40:00.405Z,24.95
2022-11-07T12:41:25.044Z,24.95
2022-11-07T12:42:38.512Z,24.94
2022-11-07T12:43:48.964Z,24.95
2022-11-07T12:45:23.031Z,24.95
2022-11-07T12:46:36.263Z,24.97
2022-11-07T12:47:55.266Z,24.95
2022-11-07T12:49:04.762Z,24.97
2022-11-07T12:50:18.464Z,24.95
2022-11-07T12:51:26.085Z,24.98
2022-11-07T12:52:33.514Z,24.98
2022-11-07T12:53:50.752Z,24.98
2022-11-07T12:54:59.269Z,25.00
2022-11-07T12:56:24.267Z,24.97
2022-11-07T12:57:28.855Z,25.03
2022-11-07T12:58:34.183Z,25.02
2022-11-07T12:59:37.595Z,25.03
2022-11-07T13:00:39.745Z,25.01
2022-11-07T13:01:55.300Z,24.99
2022-11-07T13:03:12.233Z,24.98
2022-11-07T13:04:33.108Z,24.99
2022-11-07T13:05:40.696Z,25.01
2022-11-07T13:07:00.242Z,24.99
2022-11-07T13:08:07.726Z,25.00
2022-11-07T13:09:28.862Z,24.97
2022-11-07T13:10:46.379Z,25.01
2022-11-07T13:12:06.449Z,24.98
2022-11-07T13:13:42.141Z,24.95
2022-11-07T13:14:45.418Z,25.00
2022-11-07T13:16:14.157Z,25.01
2022-11-07T13:17:24.984Z,25.00
2022-11-07T13:18:28.027Z,25.01
2022-11-07T13:19:33.205Z,24.98
2022-11-07T13:20:35.609Z,24.99
2022-11-07T13:21:43.889Z,24.96
2022-11-07T13:22:45.519Z,25.01
2022-11-07T13:23:48.188Z,24.98
2022-11-07T13:25:07.550Z,24.99
2022-11-07T13:26:32.918Z,25.03
2022-11-07T13:27:38.258Z,25.04
2022-11-07T13:28:40.846Z,25.02
2022-11-07T13:29:44.821Z,25.04
2022-11-07T13:30:55.680Z,25.01
2022-11-07T13:32:14.794Z,24.98
2022-11-07T13:33:28.923Z,24.97
2022-11-07T13:34:30.443Z,25.00
2022-11-07T13:35:39.165Z,24.99
2022-11-07T13:36:41.057Z,25.01
2022-11-07T13:37:47.973Z,25.01
2022-11-07T13:38:53.266Z,25.01
2022-11-07T13:40:16.076Z,24.99
2022-11-07T13:41:19.450Z,25.04
2022-11-07T13:42:24.034Z,25.04
2022-11-07T13:43:51.933Z,24.95
2022-11-07T13:45:02.624Z,25.03
2022-11-07T13:46:08.081Z,25.02
2022-11-07T13:47:19.747Z,24.99
2022-11-07T13:48:36.510Z,24.98
2022-11-07T13:49:44.853Z,25.02
2022-11-07T13:50:54.287Z,24.99
2022-11-07T13:52:01.284Z,25.04
2022-11-07T13:53:06.918Z,25.03
2022-11-07T13:54:28.564Z,25.00
2022-11-07T13:55:54.167Z,25.00
2022-11-07T13:57:17.430Z,24.99
2022-11-07T13:58:19.488Z,25.03
2022-11-07T13:59:58.092Z,24.98
2022-11-07T14:01:08.892Z,24.99
2022-11-07T14:02:24.588Z,24.97
2022-11-07T14:03:27.893Z,25.00
2022-11-07T14:04:29.742Z,25.01
2022-11-07T14:05:35.188Z,24.98
2022-11-07T14:06:37.055Z,24.97
2022-11-07T14:07:41.513Z,24.94
2022-11-07T14:08:47.714Z,24.92
2022-11-07T14:09:58.010Z,24.93